createdAt,value
2019-03-20T00:00:29.107Z,11.17
2019-03-20T00:02:54.915Z,17.02
2019-03-20T00:05:20.699Z,10.27
2019-03-20T00:07:46.476Z,12.87
2019-03-20T00:10:12.361Z,14.60
2019-03-20T00:12:38.247Z,12.60
2019-03-20T00:15:07.735Z,11.80
2019-03-20T00:17:33.532Z,17.65
2019-03-20T00:19:59.318Z,19.13
2019-03-20T00:22:25.090Z,18.50
2019-03-20T00:24:50.871Z,21.13
2019-03-20T00:27:16.662Z,19.37
2019-03-20T00:29:42.439Z,24.27
2019-03-20T00:32:08.334Z,18.33
2019-03-20T00:34:34.114Z,24.83
2019-03-20T00:36:59.904Z,16.50
2019-03-20T00:39:25.773Z,19.37
2019-03-20T00:41:51.554Z,11.67
2019-03-20T00:44:17.327Z,17.43
2019-03-20T00:46:43.124Z,17.57
2019-03-20T00:49:08.901Z,9.17
2019-03-20T00:51:34.692Z,14.97
2019-03-20T00:54:00.467Z,13.53
2019-03-20T00:56:26.255Z,10.67
2019-03-20T00:58:52.037Z,8.40
2019-03-20T01:01:17.819Z,17.77
2019-03-20T01:03:43.603Z,15.43
2019-03-20T01:06:09.403Z,12.27
2019-03-20T01:08:35.183Z,7.53
2019-03-20T01:11:01.000Z,11.17
2019-03-20T01:13:26.780Z,10.80
2019-03-20T01:15:52.561Z,11.87
2019-03-20T01:18:18.379Z,13.83
2019-03-20T01:20:44.166Z,12.43
2019-03-20T01:23:09.952Z,11.90
2019-03-20T01:25:35.743Z,11.83
2019-03-20T01:28:01.583Z,11.43
2019-03-20T01:30:30.633Z,10.17
2019-03-20T01:32:57.339Z,10.70
2019-03-20T01:35:24.000Z,8.98
2019-03-20T01:37:50.223Z,12.90
2019-03-20T01:40:16.006Z,11.40
2019-03-20T01:42:41.800Z,9.73
2019-03-20T01:45:08.080Z,10.23
2019-03-20T01:47:33.983Z,12.55
2019-03-20T01:49:59.760Z,11.20
2019-03-20T01:52:25.566Z,12.77
2019-03-20T01:54:51.348Z,7.53
2019-03-20T01:57:17.149Z,16.37
2019-03-20T01:59:42.938Z,9.57
2019-03-20T02:02:08.719Z,11.17
2019-03-20T02:04:34.513Z,10.40
2019-03-20T02:07:00.343Z,15.27
2019-03-20T02:09:26.111Z,12.23
2019-03-20T02:11:51.897Z,11.73
2019-03-20T02:14:17.689Z,9.73
2019-03-20T02:16:43.479Z,7.80
2019-03-20T02:19:09.285Z,8.73
2019-03-20T02:21:35.081Z,17.13
2019-03-20T02:24:00.922Z,9.50
2019-03-20T02:26:26.709Z,9.57
2019-03-20T02:28:52.509Z,9.63
2019-03-20T02:31:18.357Z,9.33
2019-03-20T02:33:44.201Z,12.47
2019-03-20T02:36:09.981Z,13.57
2019-03-20T02:38:35.781Z,12.23
2019-03-20T02:41:01.575Z,12.23
2019-03-20T02:43:27.463Z,10.20
2019-03-20T02:45:53.258Z,10.63
2019-03-20T02:48:19.050Z,14.43
2019-03-20T02:50:44.854Z,11.77
2019-03-20T02:53:10.631Z,10.80
2019-03-20T02:55:36.525Z,10.30
2019-03-20T02:58:02.314Z,9.13
2019-03-20T03:00:28.108Z,11.13
2019-03-20T03:02:53.887Z,9.63
2019-03-20T03:05:19.677Z,14.03
2019-03-20T03:07:45.462Z,9.10
2019-03-20T03:10:16.438Z,10.40
2019-03-20T03:12:42.210Z,9.77
2019-03-20T03:15:09.400Z,9.73
2019-03-20T03:17:35.198Z,6.37
2019-03-20T03:20:01.227Z,8.10
2019-03-20T03:22:27.005Z,10.20
2019-03-20T03:24:52.787Z,8.40
2019-03-20T03:27:18.582Z,10.27
2019-03-20T03:29:44.365Z,7.20
2019-03-20T03:32:10.162Z,8.10
2019-03-20T03:34:35.953Z,13.00
2019-03-20T03:37:01.738Z,8.90
2019-03-20T03:39:27.523Z,10.03
2019-03-20T03:41:53.427Z,7.23
2019-03-20T03:44:19.212Z,10.40
2019-03-20T03:46:45.105Z,6.33
2019-03-20T03:49:10.885Z,7.70
2019-03-20T03:51:36.690Z,11.20
2019-03-20T03:54:02.473Z,10.80
2019-03-20T03:56:28.260Z,10.87
2019-03-20T03:58:54.041Z,14.03
2019-03-20T04:01:19.835Z,8.93
2019-03-20T04:03:45.614Z,10.30
2019-03-20T04:06:11.409Z,11.27
2019-03-20T04:08:37.196Z,7.23
2019-03-20T04:11:03.004Z,9.57
2019-03-20T04:13:28.785Z,11.43
2019-03-20T04:15:54.566Z,10.43
2019-03-20T04:18:20.372Z,10.17
2019-03-20T04:20:46.151Z,9.40
2019-03-20T04:23:11.942Z,8.70
2019-03-20T04:25:37.730Z,13.47
2019-03-20T04:28:03.522Z,12.47
2019-03-20T04:30:29.312Z,9.33
2019-03-20T04:32:55.111Z,10.37
2019-03-20T04:35:20.894Z,11.97
2019-03-20T04:37:46.699Z,11.17
2019-03-20T04:40:16.280Z,12.23
2019-03-20T04:42:42.081Z,11.00
2019-03-20T04:45:12.789Z,12.07
2019-03-20T04:47:38.773Z,11.88
2019-03-20T04:50:08.365Z,13.77
2019-03-20T04:52:34.159Z,16.10
2019-03-20T04:54:59.942Z,12.10
2019-03-20T04:57:25.740Z,10.40
2019-03-20T04:59:51.524Z,15.23
2019-03-20T05:02:17.301Z,12.37
2019-03-20T05:04:43.098Z,17.93
2019-03-20T05:07:08.884Z,12.60
2019-03-20T05:09:34.672Z,15.07
2019-03-20T05:12:00.467Z,14.37
2019-03-20T05:14:26.267Z,14.93
2019-03-20T05:16:52.051Z,15.23
2019-03-20T05:19:17.848Z,16.67
2019-03-20T05:21:43.631Z,16.67
2019-03-20T05:24:09.428Z,16.27
2019-03-20T05:26:35.217Z,20.00
2019-03-20T05:29:01.027Z,20.47
2019-03-20T05:31:26.809Z,19.63
2019-03-20T05:33:52.607Z,18.47
2019-03-20T05:36:18.387Z,19.10
2019-03-20T05:38:44.271Z,19.67
2019-03-20T05:41:10.051Z,18.70
2019-03-20T05:43:35.846Z,20.00
2019-03-20T05:46:01.629Z,22.33
2019-03-20T05:48:27.459Z,22.60
2019-03-20T05:50:53.231Z,21.93
2019-03-20T05:53:19.023Z,19.57
2019-03-20T05:55:44.858Z,23.97
2019-03-20T05:58:10.638Z,20.63
2019-03-20T06:00:36.433Z,27.40
2019-03-20T06:03:02.418Z,20.57
2019-03-20T06:05:28.239Z,24.00
2019-03-20T06:07:54.017Z,27.27
2019-03-20T06:10:19.814Z,26.50
2019-03-20T06:12:45.603Z,24.07
2019-03-20T06:15:12.101Z,26.00
2019-03-20T06:17:37.894Z,24.57
2019-03-20T06:20:09.595Z,24.50
2019-03-20T06:22:35.388Z,28.00
2019-03-20T06:25:01.218Z,26.50
2019-03-20T06:27:27.005Z,22.90
2019-03-20T06:29:52.792Z,25.97
2019-03-20T06:32:18.581Z,27.00
2019-03-20T06:34:44.377Z,27.30
2019-03-20T06:37:10.166Z,29.73
2019-03-20T06:39:35.957Z,27.73
2019-03-20T06:42:01.748Z,26.03
2019-03-20T06:44:27.533Z,27.07
2019-03-20T06:46:53.330Z,26.43
2019-03-20T06:49:19.112Z,29.67
2019-03-20T06:51:44.921Z,27.97
2019-03-20T06:54:10.703Z,24.70
2019-03-20T06:56:36.509Z,24.97
2019-03-20T06:59:11.950Z,28.03
2019-03-20T07:01:38.549Z,25.67
2019-03-20T07:04:08.141Z,26.70
2019-03-20T07:06:40.706Z,30.27
2019-03-20T07:09:24.899Z,28.87
2019-03-20T07:11:50.696Z,26.73
2019-03-20T07:14:16.479Z,27.07
2019-03-20T07:16:42.281Z,26.43
2019-03-20T07:19:08.079Z,28.87
2019-03-20T07:21:33.876Z,26.30
2019-03-20T07:23:59.654Z,26.67
2019-03-20T07:26:25.453Z,30.27
2019-03-20T07:28:51.237Z,27.20
2019-03-20T07:31:17.223Z,27.53
2019-03-20T07:33:43.011Z,30.00
2019-03-20T07:36:08.998Z,29.23
2019-03-20T07:38:34.806Z,26.90
2019-03-20T07:41:00.603Z,28.93
2019-03-20T07:43:27.104Z,27.43
2019-03-20T07:45:52.989Z,27.87
2019-03-20T07:48:22.446Z,27.67
2019-03-20T07:50:46.475Z,29.07
2019-03-20T07:53:12.281Z,27.43
2019-03-20T07:55:38.064Z,31.17
2019-03-20T07:58:03.983Z,29.70
2019-03-20T08:00:29.761Z,29.60
2019-03-20T08:02:55.563Z,35.10
2019-03-20T08:05:29.120Z,30.97
2019-03-20T08:07:49.046Z,27.20
2019-03-20T08:10:16.330Z,26.70
2019-03-20T08:12:42.120Z,30.07
2019-03-20T08:15:13.905Z,28.90
2019-03-20T08:17:39.709Z,31.70
2019-03-20T08:20:12.310Z,29.07
2019-03-20T08:22:38.105Z,28.80
2019-03-20T08:25:05.284Z,31.80
2019-03-20T08:27:31.072Z,31.90
2019-03-20T08:29:56.876Z,31.60
2019-03-20T08:32:22.659Z,30.13
2019-03-20T08:34:48.454Z,28.33
2019-03-20T08:37:14.246Z,29.87
2019-03-20T08:39:40.041Z,34.83
2019-03-20T08:42:05.823Z,29.63
2019-03-20T08:44:31.621Z,30.77
2019-03-20T08:46:57.403Z,28.30
2019-03-20T08:49:23.200Z,31.27
2019-03-20T08:51:48.979Z,30.80
2019-03-20T08:54:14.775Z,30.30
2019-03-20T08:56:40.556Z,30.57
2019-03-20T08:59:06.349Z,32.87
2019-03-20T09:01:32.135Z,31.30
2019-03-20T09:03:57.929Z,31.30
2019-03-20T09:06:23.732Z,32.13
2019-03-20T09:08:49.525Z,29.67
2019-03-20T09:11:15.306Z,30.57
2019-03-20T09:13:41.106Z,32.07
2019-03-20T09:16:06.888Z,32.13
2019-03-20T09:18:32.701Z,30.87
2019-03-20T09:20:58.490Z,31.67
2019-03-20T09:23:24.277Z,32.70
2019-03-20T09:25:50.081Z,31.20
2019-03-20T09:28:15.866Z,31.30
2019-03-20T09:30:41.661Z,30.50
2019-03-20T09:33:07.450Z,31.43
2019-03-20T09:35:33.348Z,32.90
2019-03-20T09:37:59.134Z,32.70
2019-03-20T09:40:25.737Z,32.23
2019-03-20T09:42:51.533Z,31.40
2019-03-20T09:45:18.431Z,32.57
2019-03-20T09:47:44.229Z,31.87
2019-03-20T09:50:16.202Z,34.23
2019-03-20T09:52:41.995Z,32.93
2019-03-20T09:55:09.894Z,32.47
2019-03-20T09:57:35.693Z,31.93
2019-03-20T10:00:02.903Z,33.33
2019-03-20T10:02:28.689Z,34.07
2019-03-20T10:04:54.481Z,33.73
2019-03-20T10:07:20.263Z,32.10
2019-03-20T10:09:46.076Z,33.90
2019-03-20T10:12:11.861Z,33.87
2019-03-20T10:14:37.649Z,35.67
2019-03-20T10:17:03.444Z,35.47
2019-03-20T10:19:29.250Z,34.07
2019-03-20T10:21:55.059Z,34.23
2019-03-20T10:24:20.845Z,35.50
2019-03-20T10:26:46.650Z,34.53
2019-03-20T10:29:12.434Z,34.93
2019-03-20T10:31:38.238Z,34.90
2019-03-20T10:34:04.038Z,35.87
2019-03-20T10:36:29.852Z,34.57
2019-03-20T10:39:05.988Z,35.13
2019-03-20T10:41:23.348Z,35.87
2019-03-20T10:43:49.129Z,36.37
2019-03-20T10:46:14.931Z,35.87
2019-03-20T10:48:40.719Z,36.57
2019-03-20T10:51:06.518Z,35.07
2019-03-20T10:53:32.340Z,37.90
2019-03-20T10:55:58.101Z,36.60
2019-03-20T10:58:23.893Z,39.33
2019-03-20T11:00:49.716Z,37.27
2019-03-20T11:03:15.536Z,37.27
2019-03-20T11:05:41.295Z,38.07
2019-03-20T11:08:07.086Z,39.47
2019-03-20T11:10:33.086Z,38.03
2019-03-20T11:12:58.877Z,40.27
2019-03-20T11:15:24.865Z,40.03
2019-03-20T11:17:50.675Z,40.97
2019-03-20T11:20:17.459Z,41.20
2019-03-20T11:22:43.257Z,42.83
2019-03-20T11:25:17.663Z,41.80
2019-03-20T11:27:43.474Z,39.03
2019-03-20T11:30:13.064Z,42.67
2019-03-20T11:32:40.048Z,39.40
2019-03-20T11:35:06.070Z,39.60
2019-03-20T11:37:31.887Z,40.93
2019-03-20T11:39:57.671Z,42.50
2019-03-20T11:42:23.467Z,47.30
2019-03-20T11:44:49.245Z,50.47
2019-03-20T11:47:15.139Z,46.97
2019-03-20T11:49:40.958Z,45.33
2019-03-20T11:52:06.746Z,48.03
2019-03-20T11:54:32.537Z,54.80
2019-03-20T11:56:58.487Z,53.07
2019-03-20T11:59:24.296Z,50.37
2019-03-20T12:01:50.068Z,51.47
2019-03-20T12:04:15.865Z,59.07
2019-03-20T12:06:41.642Z,53.70
2019-03-20T12:09:07.641Z,51.70
2019-03-20T12:11:37.440Z,55.27
2019-03-20T12:14:01.188Z,58.00
2019-03-20T12:16:26.973Z,59.50
2019-03-20T12:18:52.790Z,60.60
2019-03-20T12:21:18.561Z,53.23
2019-03-20T12:23:44.366Z,52.17
2019-03-20T12:26:10.150Z,61.87
2019-03-20T12:28:35.962Z,58.87
2019-03-20T12:31:01.733Z,66.43
2019-03-20T12:33:27.534Z,56.63
2019-03-20T12:35:53.321Z,57.77
2019-03-20T12:38:19.125Z,59.50
2019-03-20T12:40:44.904Z,59.43
2019-03-20T12:43:10.706Z,59.10
2019-03-20T12:45:37.488Z,67.20
2019-03-20T12:48:04.977Z,61.20
2019-03-20T12:50:30.782Z,58.30
2019-03-20T12:52:56.761Z,62.23
2019-03-20T12:55:22.567Z,68.70
2019-03-20T12:57:48.351Z,59.47
2019-03-20T13:00:17.155Z,60.30
2019-03-20T13:02:43.052Z,60.23
2019-03-20T13:05:11.158Z,66.73
2019-03-20T13:07:36.957Z,66.00
2019-03-20T13:10:05.775Z,63.50
2019-03-20T13:12:31.667Z,61.00
2019-03-20T13:14:57.464Z,66.17
2019-03-20T13:17:23.267Z,56.50
2019-03-20T13:19:49.069Z,59.83
2019-03-20T13:22:14.858Z,60.70
2019-03-20T13:24:40.659Z,59.73
2019-03-20T13:27:06.447Z,61.90
2019-03-20T13:29:32.240Z,58.40
2019-03-20T13:31:58.020Z,53.13
2019-03-20T13:34:23.854Z,58.67
2019-03-20T13:36:49.637Z,57.47
2019-03-20T13:39:15.422Z,58.43
2019-03-20T13:41:41.219Z,48.50
2019-03-20T13:44:07.004Z,48.20
2019-03-20T13:46:32.800Z,48.67
2019-03-20T13:48:58.631Z,45.53
2019-03-20T13:51:24.428Z,45.07
2019-03-20T13:53:50.222Z,48.70
2019-03-20T13:56:16.011Z,43.70
2019-03-20T13:58:41.802Z,44.47
2019-03-20T14:01:07.590Z,41.93
2019-03-20T14:03:33.372Z,45.43
2019-03-20T14:05:59.173Z,43.57
2019-03-20T14:08:24.958Z,46.20
2019-03-20T14:10:50.989Z,46.37
2019-03-20T14:13:16.856Z,42.70
2019-03-20T14:15:43.319Z,46.13
2019-03-20T14:18:13.614Z,45.47
2019-03-20T14:20:39.412Z,43.33
2019-03-20T14:23:05.215Z,41.53
2019-03-20T14:25:30.999Z,42.87
2019-03-20T14:27:56.808Z,41.60
2019-03-20T14:30:29.853Z,42.03
2019-03-20T14:32:55.665Z,40.70
2019-03-20T14:35:21.435Z,39.07
2019-03-20T14:37:47.329Z,39.87
2019-03-20T14:40:18.900Z,38.23
2019-03-20T14:42:44.706Z,41.27
2019-03-20T14:45:12.491Z,39.43
2019-03-20T14:47:42.096Z,40.00
2019-03-20T14:50:09.796Z,39.13
2019-03-20T14:52:35.605Z,39.53
2019-03-20T14:55:01.488Z,38.50
2019-03-20T14:57:27.288Z,38.63
2019-03-20T14:59:53.081Z,36.17
2019-03-20T15:02:18.890Z,38.27
2019-03-20T15:04:44.667Z,37.83
2019-03-20T15:07:10.468Z,37.57
2019-03-20T15:09:36.250Z,35.50
2019-03-20T15:12:02.053Z,37.37
2019-03-20T15:14:27.845Z,34.87
2019-03-20T15:16:53.625Z,34.67
2019-03-20T15:19:19.443Z,34.80
2019-03-20T15:21:45.221Z,33.77
2019-03-20T15:24:11.027Z,34.63
2019-03-20T15:26:36.813Z,35.50
2019-03-20T15:29:02.809Z,33.63
2019-03-20T15:31:28.603Z,30.33
2019-03-20T15:33:54.405Z,29.90
2019-03-20T15:36:20.193Z,31.47
2019-03-20T15:38:45.998Z,31.17
2019-03-20T15:41:13.918Z,28.40
2019-03-20T15:43:39.481Z,30.30
2019-03-20T15:46:05.255Z,30.13
2019-03-20T15:48:31.066Z,28.63
2019-03-20T15:50:56.863Z,25.53
2019-03-20T15:53:22.656Z,28.23
2019-03-20T15:55:48.444Z,26.87
2019-03-20T15:58:14.242Z,28.33
2019-03-20T16:00:40.029Z,28.37
2019-03-20T16:03:12.191Z,29.50
2019-03-20T16:05:38.084Z,31.13
2019-03-20T16:08:04.075Z,28.83
2019-03-20T16:10:29.967Z,30.37
2019-03-20T16:12:55.747Z,32.30
2019-03-20T16:15:22.447Z,29.93
2019-03-20T16:17:48.258Z,32.43
2019-03-20T16:20:14.648Z,33.53
2019-03-20T16:22:40.451Z,32.20
2019-03-20T16:25:18.122Z,30.90
2019-03-20T16:27:43.913Z,34.30
2019-03-20T16:30:15.077Z,35.30
2019-03-20T16:32:40.867Z,34.70
2019-03-20T16:35:07.968Z,38.53
2019-03-20T16:37:33.760Z,37.43
2019-03-20T16:39:59.552Z,39.57
2019-03-20T16:42:25.342Z,42.50
2019-03-20T16:44:51.146Z,41.40
2019-03-20T16:47:16.942Z,43.10
2019-03-20T16:49:42.760Z,42.97
2019-03-20T16:52:08.545Z,48.63
2019-03-20T16:54:34.346Z,46.93
2019-03-20T16:57:00.145Z,51.07
2019-03-20T16:59:25.934Z,48.60
2019-03-20T17:01:51.715Z,47.37
2019-03-20T17:04:17.526Z,53.70
2019-03-20T17:06:43.356Z,51.17
2019-03-20T17:09:09.147Z,52.57
2019-03-20T17:11:38.526Z,57.30
2019-03-20T17:14:02.851Z,58.97
2019-03-20T17:16:28.699Z,56.80
2019-03-20T17:18:54.491Z,54.40
2019-03-20T17:21:20.296Z,51.33
2019-03-20T17:23:46.083Z,49.70
2019-03-20T17:26:11.883Z,54.60
2019-03-20T17:28:37.684Z,57.43
2019-03-20T17:31:03.485Z,57.43
2019-03-20T17:33:29.266Z,58.33
2019-03-20T17:35:55.062Z,56.40
2019-03-20T17:38:20.852Z,61.67
2019-03-20T17:40:46.646Z,60.60
2019-03-20T17:43:12.439Z,56.13
2019-03-20T17:45:38.254Z,61.57
2019-03-20T17:48:04.164Z,58.13
2019-03-20T17:50:33.747Z,65.83
2019-03-20T17:52:59.936Z,61.20
2019-03-20T17:55:26.034Z,65.17
2019-03-20T17:57:51.843Z,65.67
2019-03-20T18:00:28.103Z,65.57
2019-03-20T18:02:53.928Z,56.93
2019-03-20T18:05:19.701Z,58.07
2019-03-20T18:07:45.501Z,63.93
2019-03-20T18:10:11.282Z,62.37
2019-03-20T18:12:37.087Z,65.47
2019-03-20T18:15:06.574Z,62.47
2019-03-20T18:17:32.381Z,71.97
2019-03-20T18:19:58.173Z,68.33
2019-03-20T18:22:24.029Z,63.23
2019-03-20T18:24:49.770Z,64.20
2019-03-20T18:27:15.572Z,65.67
2019-03-20T18:29:43.303Z,63.43
2019-03-20T18:32:09.061Z,62.83
2019-03-20T18:34:34.882Z,59.87
2019-03-20T18:37:00.683Z,57.17
2019-03-20T18:39:26.466Z,55.67
2019-03-20T18:41:57.697Z,55.67
2019-03-20T18:44:19.966Z,59.57
2019-03-20T18:46:45.772Z,58.80
2019-03-20T18:49:11.551Z,53.20
2019-03-20T18:51:37.365Z,52.67
2019-03-20T18:54:03.551Z,51.70
2019-03-20T18:56:29.432Z,51.53
2019-03-20T18:58:55.227Z,52.53
2019-03-20T19:01:21.018Z,57.80
2019-03-20T19:03:49.829Z,56.73
2019-03-20T19:06:22.100Z,60.37
2019-03-20T19:08:47.912Z,54.17
2019-03-20T19:11:13.779Z,57.47
2019-03-20T19:13:39.571Z,50.77
2019-03-20T19:16:05.365Z,55.03
2019-03-20T19:18:31.183Z,53.33
2019-03-20T19:20:57.008Z,57.80
2019-03-20T19:23:22.797Z,60.17
2019-03-20T19:25:48.584Z,57.80
2019-03-20T19:28:14.402Z,59.63
2019-03-20T19:30:40.170Z,54.33
2019-03-20T19:33:05.973Z,46.27
2019-03-20T19:35:31.903Z,55.53
2019-03-20T19:37:57.698Z,52.17
2019-03-20T19:40:23.484Z,52.33
2019-03-20T19:42:49.318Z,53.07
2019-03-20T19:45:16.104Z,50.23
2019-03-20T19:47:41.892Z,51.90
2019-03-20T19:50:13.127Z,54.37
2019-03-20T19:52:38.929Z,56.73
2019-03-20T19:55:07.024Z,55.83
2019-03-20T19:57:32.828Z,57.90
2019-03-20T19:59:58.625Z,55.67
2019-03-20T20:02:24.409Z,55.90
2019-03-20T20:04:50.236Z,61.53
2019-03-20T20:07:16.021Z,58.27
2019-03-20T20:09:41.816Z,59.30
2019-03-20T20:12:07.605Z,57.57
2019-03-20T20:14:33.399Z,59.63
2019-03-20T20:16:59.199Z,66.43
2019-03-20T20:19:25.014Z,56.10
2019-03-20T20:21:50.804Z,61.17
2019-03-20T20:24:16.600Z,58.47
2019-03-20T20:26:42.384Z,58.20
2019-03-20T20:29:08.185Z,57.67
2019-03-20T20:31:33.988Z,64.23
2019-03-20T20:33:59.782Z,60.23
2019-03-20T20:36:25.578Z,61.40
2019-03-20T20:38:51.368Z,53.97
2019-03-20T20:41:17.162Z,54.00
2019-03-20T20:43:42.946Z,58.77
2019-03-20T20:46:08.740Z,54.40
2019-03-20T20:48:34.523Z,58.30
2019-03-20T20:51:00.327Z,57.43
2019-03-20T20:53:26.110Z,59.17
2019-03-20T20:55:51.919Z,55.30
2019-03-20T20:58:18.011Z,55.57
2019-03-20T21:00:43.817Z,50.70
2019-03-20T21:03:09.603Z,54.33
2019-03-20T21:05:35.416Z,54.73
2019-03-20T21:08:01.241Z,53.57
2019-03-20T21:10:27.040Z,54.90
2019-03-20T21:12:56.798Z,51.87
2019-03-20T21:15:33.146Z,49.17
2019-03-20T21:18:15.073Z,59.07
2019-03-20T21:20:41.395Z,60.27
2019-03-20T21:23:40.083Z,57.87
2019-03-20T21:26:25.018Z,57.47
2019-03-20T21:29:28.287Z,57.17
2019-03-20T21:32:10.218Z,57.03
2019-03-20T21:34:56.453Z,63.27
2019-03-20T21:37:44.653Z,61.73
2019-03-20T21:40:11.947Z,60.30
2019-03-20T21:43:06.598Z,56.73
2019-03-20T21:45:46.820Z,59.47
2019-03-20T21:48:12.629Z,59.30
2019-03-20T21:51:00.607Z,58.47
2019-03-20T21:54:07.245Z,59.03
2019-03-20T21:56:39.878Z,55.47
2019-03-20T21:59:12.507Z,58.13
2019-03-20T22:02:03.534Z,62.57
2019-03-20T22:04:29.327Z,60.03
2019-03-20T22:07:09.253Z,58.40
2019-03-20T22:09:50.909Z,59.87
2019-03-20T22:12:29.853Z,58.63
2019-03-20T22:15:16.339Z,56.17
2019-03-20T22:18:15.168Z,60.77
2019-03-20T22:20:44.757Z,62.20
2019-03-20T22:23:23.448Z,56.80
2019-03-20T22:26:08.276Z,57.10
2019-03-20T22:28:54.847Z,58.53
2019-03-20T22:31:20.633Z,61.53
2019-03-20T22:34:24.126Z,56.60
2019-03-20T22:36:49.914Z,59.60
2019-03-20T22:39:34.640Z,57.40
2019-03-20T22:42:07.034Z,62.93
2019-03-20T22:44:34.442Z,58.43
2019-03-20T22:47:26.617Z,63.40
2019-03-20T22:50:05.514Z,59.67
2019-03-20T22:52:43.947Z,57.43
2019-03-20T22:55:33.622Z,61.90
2019-03-20T22:58:06.010Z,71.83
2019-03-20T23:00:32.305Z,67.13
2019-03-20T23:03:04.430Z,73.63
2019-03-20T23:05:30.244Z,73.77
2019-03-20T23:07:56.026Z,78.50
2019-03-20T23:10:21.820Z,80.73
2019-03-20T23:12:47.608Z,84.03
2019-03-20T23:15:19.557Z,87.77
2019-03-20T23:17:45.346Z,87.13
2019-03-20T23:20:14.662Z,82.17
2019-03-20T23:22:40.752Z,92.57
2019-03-20T23:25:09.663Z,90.10
2019-03-20T23:27:35.462Z,88.23
2019-03-20T23:30:01.597Z,97.27
2019-03-20T23:32:27.388Z,90.23
2019-03-20T23:34:53.179Z,84.47
2019-03-20T23:37:19.047Z,92.70
2019-03-20T23:39:44.840Z,82.33
2019-03-20T23:42:10.625Z,87.20
2019-03-20T23:44:36.423Z,87.07
2019-03-20T23:47:02.215Z,85.43
2019-03-20T23:49:28.011Z,89.40
2019-03-20T23:51:54.205Z,80.40
2019-03-20T23:54:23.860Z,88.60
2019-03-20T23:56:49.632Z,80.40
2019-03-20T23:59:15.436Z,86.60
